createdAt,value
2022-09-15T00:02:03.849Z,96603.81
2022-09-15T00:04:33.206Z,96621.34
2022-09-15T00:07:02.414Z,96618.56
2022-09-15T00:09:33.149Z,96604.31
2022-09-15T00:12:03.362Z,96591.03
2022-09-15T00:14:32.533Z,96577.75
2022-09-15T00:17:01.655Z,96578.00
2022-09-15T00:19:33.891Z,96572.72
2022-09-15T00:22:03.245Z,96555.69
2022-09-15T00:24:34.019Z,96549.97
2022-09-15T00:27:03.346Z,96548.19
2022-09-15T00:29:32.367Z,96554.47
2022-09-15T00:32:01.283Z,96555.69
2022-09-15T00:34:30.403Z,96565.00
2022-09-15T00:36:59.509Z,96576.28
2022-09-15T00:39:28.423Z,96572.72
2022-09-15T00:41:59.046Z,96550.94
2022-09-15T00:44:52.288Z,96566.69
2022-09-15T00:47:25.913Z,96569.94
2022-09-15T00:50:01.278Z,96569.44
2022-09-15T00:52:37.689Z,96555.88
2022-09-15T00:55:11.417Z,96546.66
2022-09-15T00:57:46.295Z,96539.63
2022-09-15T01:00:20.036Z,96553.16
2022-09-15T01:02:50.534Z,96548.16
2022-09-15T01:05:24.866Z,96548.63
2022-09-15T01:07:58.395Z,96560.13
2022-09-15T01:10:30.809Z,96563.69
2022-09-15T01:13:05.767Z,96569.22
2022-09-15T01:15:48.172Z,96572.38
2022-09-15T01:18:23.370Z,96575.63
2022-09-15T01:21:17.554Z,96582.63
2022-09-15T01:24:44.043Z,96582.84
2022-09-15T01:27:53.380Z,96591.09
2022-09-15T01:30:25.470Z,96584.06
2022-09-15T01:33:25.905Z,96593.34
2022-09-15T01:36:04.048Z,96603.38
2022-09-15T01:38:50.271Z,96617.59
2022-09-15T01:41:25.560Z,96615.88
2022-09-15T01:44:02.361Z,96610.59
2022-09-15T01:46:37.207Z,96613.63
2022-09-15T01:49:09.646Z,96606.09
2022-09-15T01:51:41.342Z,96602.56
2022-09-15T01:54:11.974Z,96597.53
2022-09-15T01:56:42.381Z,96597.84
2022-09-15T01:59:13.325Z,96589.28
2022-09-15T02:01:49.906Z,96578.75
2022-09-15T02:04:25.026Z,96577.78
2022-09-15T02:07:01.079Z,96570.75
2022-09-15T02:09:34.940Z,96572.78
2022-09-15T02:12:10.706Z,96565.47
2022-09-15T02:14:49.427Z,96560.97
2022-09-15T02:17:22.409Z,96569.75
2022-09-15T02:19:57.196Z,96561.69
2022-09-15T02:22:28.894Z,96558.19
2022-09-15T02:25:03.148Z,96545.94
2022-09-15T02:27:37.864Z,96558.41
2022-09-15T02:30:12.514Z,96563.88
2022-09-15T02:32:51.156Z,96577.81
2022-09-15T02:35:20.518Z,96581.88
2022-09-15T02:37:50.534Z,96588.25
2022-09-15T02:40:19.966Z,96582.72
2022-09-15T02:42:55.960Z,96576.91
2022-09-15T02:45:26.979Z,96587.88
2022-09-15T02:47:57.963Z,96573.41
2022-09-15T02:50:27.996Z,96571.94
2022-09-15T02:52:57.158Z,96572.91
2022-09-15T02:55:29.174Z,96566.34
2022-09-15T02:57:58.297Z,96557.84
2022-09-15T03:00:28.556Z,96579.59
2022-09-15T03:02:59.163Z,96583.81
2022-09-15T03:05:30.335Z,96595.28
2022-09-15T03:07:59.688Z,96599.03
2022-09-15T03:10:28.783Z,96595.53
2022-09-15T03:12:58.694Z,96589.56
2022-09-15T03:15:29.243Z,96581.53
2022-09-15T03:18:00.501Z,96570.59
2022-09-15T03:20:30.460Z,96550.38
2022-09-15T03:22:59.610Z,96548.38
2022-09-15T03:25:29.058Z,96546.09
2022-09-15T03:27:58.303Z,96554.59
2022-09-15T03:30:27.582Z,96559.78
2022-09-15T03:32:56.502Z,96561.50
2022-09-15T03:35:27.019Z,96554.94
2022-09-15T03:37:56.387Z,96559.66
2022-09-15T03:40:25.446Z,96566.13
2022-09-15T03:42:54.526Z,96558.38
2022-09-15T03:45:23.478Z,96542.91
2022-09-15T03:47:52.617Z,96525.78
2022-09-15T03:50:21.717Z,96522.66
2022-09-15T03:52:56.710Z,96520.19
2022-09-15T03:55:28.210Z,96523.44
2022-09-15T03:57:57.967Z,96525.28
2022-09-15T04:00:27.536Z,96533.16
2022-09-15T04:02:57.045Z,96533.59
2022-09-15T04:05:26.119Z,96536.28
2022-09-15T04:08:14.250Z,96534.50
2022-09-15T04:10:43.406Z,96540.19
2022-09-15T04:13:12.397Z,96540.19
2022-09-15T04:15:41.491Z,96523.38
2022-09-15T04:18:11.371Z,96531.31
2022-09-15T04:20:40.943Z,96531.19
2022-09-15T04:23:09.961Z,96525.53
2022-09-15T04:25:40.435Z,96516.75
2022-09-15T04:28:09.522Z,96525.53
2022-09-15T04:30:38.546Z,96526.84
2022-09-15T04:33:08.352Z,96527.50
2022-09-15T04:35:37.447Z,96528.44
2022-09-15T04:38:08.020Z,96530.69
2022-09-15T04:40:36.918Z,96543.78
2022-09-15T04:43:16.784Z,96563.09
2022-09-15T04:45:45.809Z,96565.75
2022-09-15T04:48:14.891Z,96555.41
2022-09-15T04:50:44.092Z,96554.63
2022-09-15T04:53:14.479Z,96561.84
2022-09-15T04:55:45.269Z,96571.44
2022-09-15T04:58:15.706Z,96579.16
2022-09-15T05:00:44.925Z,96578.59
2022-09-15T05:03:15.668Z,96589.88
2022-09-15T05:05:44.869Z,96590.16
2022-09-15T05:08:13.712Z,96589.31
2022-09-15T05:10:43.076Z,96595.00
2022-09-15T05:13:12.041Z,96601.66
2022-09-15T05:15:42.531Z,96621.56
2022-09-15T05:18:11.426Z,96626.31
2022-09-15T05:20:40.424Z,96624.72
2022-09-15T05:23:10.670Z,96616.50
2022-09-15T05:25:39.488Z,96617.50
2022-09-15T05:28:08.906Z,96604.19
2022-09-15T05:30:44.379Z,96579.69
2022-09-15T05:33:13.939Z,96590.47
2022-09-15T05:35:52.630Z,96602.41
2022-09-15T05:38:22.045Z,96606.13
2022-09-15T05:40:51.078Z,96622.59
2022-09-15T05:43:20.474Z,96621.97
2022-09-15T05:45:57.272Z,96624.44
2022-09-15T05:48:26.385Z,96634.88
2022-09-15T05:50:56.783Z,96636.09
2022-09-15T05:53:26.917Z,96641.00
2022-09-15T05:56:00.630Z,96636.47
2022-09-15T05:58:29.643Z,96642.91
2022-09-15T06:01:07.776Z,96656.97
2022-09-15T06:03:38.127Z,96644.03
2022-09-15T06:06:08.698Z,96641.19
2022-09-15T06:08:43.916Z,96652.28
2022-09-15T06:11:16.250Z,96635.34
2022-09-15T06:13:46.523Z,96631.69
2022-09-15T06:16:19.787Z,96623.22
2022-09-15T06:18:50.206Z,96634.22
2022-09-15T06:21:21.879Z,96648.47
2022-09-15T06:23:55.614Z,96637.47
2022-09-15T06:26:25.200Z,96644.28
2022-09-15T06:28:57.326Z,96653.59
2022-09-15T06:31:31.602Z,96645.00
2022-09-15T06:34:02.533Z,96642.09
2022-09-15T06:36:32.867Z,96650.19
2022-09-15T06:39:04.431Z,96653.44
2022-09-15T06:41:58.321Z,96641.66
2022-09-15T06:44:23.328Z,96637.06
2022-09-15T06:46:54.034Z,96646.28
2022-09-15T06:49:23.006Z,96645.44
2022-09-15T06:51:52.156Z,96637.97
2022-09-15T06:54:21.662Z,96638.28
2022-09-15T06:56:51.147Z,96641.78
2022-09-15T06:59:20.168Z,96642.63
2022-09-15T07:01:55.707Z,96630.09
2022-09-15T07:04:24.751Z,96639.09
2022-09-15T07:06:53.789Z,96625.88
2022-09-15T07:09:23.174Z,96622.59
2022-09-15T07:11:52.201Z,96623.84
2022-09-15T07:14:21.217Z,96624.09
2022-09-15T07:16:50.614Z,96627.84
2022-09-15T07:19:21.748Z,96623.41
2022-09-15T07:21:52.939Z,96622.28
2022-09-15T07:24:22.170Z,96615.53
2022-09-15T07:26:52.186Z,96610.53
2022-09-15T07:29:21.115Z,96603.59
2022-09-15T07:31:50.751Z,96602.31
2022-09-15T07:34:21.189Z,96610.28
2022-09-15T07:36:50.332Z,96615.31
2022-09-15T07:39:22.430Z,96629.16
2022-09-15T07:41:51.447Z,96618.41
2022-09-15T07:44:20.773Z,96622.19
2022-09-15T07:46:49.787Z,96615.13
2022-09-15T07:49:20.145Z,96612.84
2022-09-15T07:51:49.237Z,96604.97
2022-09-15T07:54:22.659Z,96608.91
2022-09-15T07:56:52.245Z,96599.13
2022-09-15T07:59:21.234Z,96604.16
2022-09-15T08:01:51.263Z,96604.69
2022-09-15T08:04:22.407Z,96596.25
2022-09-15T08:06:52.737Z,96585.25
2022-09-15T08:09:21.974Z,96587.25
2022-09-15T08:11:53.832Z,96597.25
2022-09-15T08:14:23.095Z,96590.28
2022-09-15T08:16:52.227Z,96589.06
2022-09-15T08:19:23.174Z,96579.31
2022-09-15T08:21:52.040Z,96588.88
2022-09-15T08:24:22.751Z,96589.09
2022-09-15T08:26:52.077Z,96590.34
2022-09-15T08:29:21.270Z,96580.34
2022-09-15T08:31:50.580Z,96588.13
2022-09-15T08:34:22.114Z,96586.88
2022-09-15T08:36:51.228Z,96579.41
2022-09-15T08:39:20.642Z,96580.41
2022-09-15T08:41:52.349Z,96578.91
2022-09-15T08:44:38.302Z,96581.13
2022-09-15T08:47:17.264Z,96573.63
2022-09-15T08:49:59.926Z,96576.38
2022-09-15T08:52:35.782Z,96571.59
2022-09-15T08:55:13.604Z,96568.59
2022-09-15T08:57:42.744Z,96551.28
2022-09-15T09:00:18.381Z,96549.53
2022-09-15T09:03:06.441Z,96550.78
2022-09-15T09:05:52.149Z,96552.06
2022-09-15T09:09:00.410Z,96538.53
2022-09-15T09:11:48.535Z,96521.25
2022-09-15T09:14:27.439Z,96523.00
2022-09-15T09:17:21.329Z,96520.50
2022-09-15T09:20:15.653Z,96504.44
2022-09-15T09:22:49.068Z,96501.94
2022-09-15T09:25:27.529Z,96493.66
2022-09-15T09:27:59.337Z,96511.19
2022-09-15T09:30:34.293Z,96500.19
2022-09-15T09:33:30.416Z,96505.72
2022-09-15T09:36:02.715Z,96502.16
2022-09-15T09:38:37.147Z,96515.41
2022-09-15T09:41:12.207Z,96517.19
2022-09-15T09:43:42.414Z,96519.16
2022-09-15T09:46:16.621Z,96528.44
2022-09-15T09:48:50.561Z,96526.66
2022-09-15T09:51:38.446Z,96533.44
2022-09-15T09:54:15.475Z,96539.22
2022-09-15T09:56:47.326Z,96530.97
2022-09-15T09:59:42.579Z,96521.94
2022-09-15T10:02:20.720Z,96520.22
2022-09-15T10:04:51.923Z,96531.97
2022-09-15T10:07:24.825Z,96537.97
2022-09-15T10:09:58.234Z,96537.72
2022-09-15T10:12:32.613Z,96535.00
2022-09-15T10:15:05.078Z,96543.75
2022-09-15T10:17:43.990Z,96534.75
2022-09-15T10:20:32.671Z,96526.53
2022-09-15T10:23:10.903Z,96538.78
2022-09-15T10:25:58.540Z,96534.53
2022-09-15T10:28:42.027Z,96538.78
2022-09-15T10:31:18.366Z,96535.53
2022-09-15T10:33:48.132Z,96532.75
2022-09-15T10:36:21.643Z,96519.19
2022-09-15T10:38:57.450Z,96502.38
2022-09-15T10:41:35.134Z,96505.38
2022-09-15T10:44:24.294Z,96508.09
2022-09-15T10:47:05.607Z,96502.19
2022-09-15T10:49:52.057Z,96515.69
2022-09-15T10:52:36.187Z,96534.00
2022-09-15T10:55:51.101Z,96519.47
2022-09-15T10:58:49.542Z,96512.75
2022-09-15T11:01:54.227Z,96508.50
2022-09-15T11:04:51.066Z,96519.75
2022-09-15T11:07:35.345Z,96536.28
2022-09-15T11:10:22.980Z,96543.28
2022-09-15T11:13:05.940Z,96580.78
2022-09-15T11:15:56.200Z,96609.53
2022-09-15T11:18:57.480Z,96618.56
2022-09-15T11:21:38.848Z,96626.41
2022-09-15T11:24:38.182Z,96631.88
2022-09-15T11:27:15.713Z,96635.19
2022-09-15T11:30:04.191Z,96642.56
2022-09-15T11:32:42.683Z,96634.31
2022-09-15T11:35:36.558Z,96606.88
2022-09-15T11:38:32.515Z,96581.31
2022-09-15T11:41:21.419Z,96564.81
2022-09-15T11:44:16.215Z,96551.34
2022-09-15T11:47:28.629Z,96543.59
2022-09-15T11:50:10.781Z,96536.66
2022-09-15T11:52:54.354Z,96514.94
2022-09-15T11:55:35.272Z,96497.00
2022-09-15T11:58:22.071Z,96479.03
2022-09-15T12:00:57.326Z,96472.13
2022-09-15T12:03:32.358Z,96459.63
2022-09-15T12:06:09.056Z,96464.41
2022-09-15T12:08:43.519Z,96463.66
2022-09-15T12:11:18.737Z,96462.38
2022-09-15T12:13:48.323Z,96459.13
2022-09-15T12:16:19.037Z,96460.09
2022-09-15T12:18:52.819Z,96469.06
2022-09-15T12:21:34.197Z,96482.53
2022-09-15T12:24:14.351Z,96483.13
2022-09-15T12:26:46.849Z,96495.16
2022-09-15T12:29:41.867Z,96504.94
2022-09-15T12:32:25.517Z,96496.69
2022-09-15T12:35:31.856Z,96492.69
2022-09-15T12:38:02.574Z,96500.22
2022-09-15T12:40:37.993Z,96491.94
2022-09-15T12:43:23.044Z,96494.19
2022-09-15T12:45:57.874Z,96496.69
2022-09-15T12:48:30.407Z,96497.19
2022-09-15T12:51:03.126Z,96487.66
2022-09-15T12:53:37.753Z,96492.19
2022-09-15T12:56:10.519Z,96478.41
2022-09-15T12:58:43.648Z,96476.66
2022-09-15T13:01:35.697Z,96474.91
2022-09-15T13:04:45.814Z,96470.63
2022-09-15T13:07:35.698Z,96471.88
2022-09-15T13:10:34.158Z,96484.63
2022-09-15T13:13:28.768Z,96486.88
2022-09-15T13:16:04.123Z,96491.59
2022-09-15T13:18:36.470Z,96501.53
2022-09-15T13:21:13.990Z,96503.56
2022-09-15T13:23:45.536Z,96507.19
2022-09-15T13:26:24.034Z,96509.03
2022-09-15T13:28:56.396Z,96521.59
2022-09-15T13:31:37.455Z,96524.53
2022-09-15T13:35:16.797Z,96528.22
2022-09-15T13:38:23.953Z,96521.75
2022-09-15T13:41:40.315Z,96532.72
2022-09-15T13:44:43.183Z,96532.53
2022-09-15T13:47:28.343Z,96527.16
2022-09-15T13:50:09.169Z,96530.41
2022-09-15T13:53:15.236Z,96508.38
2022-09-15T13:55:46.701Z,96505.22
2022-09-15T14:01:12.590Z,96504.56
2022-09-15T14:03:48.402Z,96500.34
2022-09-15T14:06:22.395Z,96504.63
2022-09-15T14:08:55.315Z,96503.91
2022-09-15T14:11:28.638Z,96504.97
2022-09-15T14:14:00.813Z,96512.19
2022-09-15T14:16:37.398Z,96511.47
2022-09-15T14:19:32.444Z,96509.47
2022-09-15T14:22:02.509Z,96500.19
2022-09-15T14:24:33.345Z,96506.44
2022-09-15T14:27:10.356Z,96514.28
2022-09-15T14:29:43.309Z,96522.94
2022-09-15T14:32:17.416Z,96513.78
2022-09-15T14:37:22.582Z,96525.22
2022-09-15T14:39:56.626Z,96522.50
2022-09-15T14:42:30.836Z,96519.28
2022-09-15T14:48:18.009Z,96510.25
2022-09-15T14:51:00.982Z,96517.25
2022-09-15T14:53:35.626Z,96516.66
2022-09-15T14:56:10.574Z,96506.66
2022-09-15T14:58:45.696Z,96517.69
2022-09-15T15:01:18.707Z,96515.22
2022-09-15T15:03:57.170Z,96510.50
2022-09-15T15:06:34.154Z,96506.00
2022-09-15T15:09:08.144Z,96493.00
2022-09-15T15:11:38.229Z,96491.75
2022-09-15T15:14:11.439Z,96484.97
2022-09-15T15:16:53.577Z,96492.72
2022-09-15T15:19:42.682Z,96494.50
2022-09-15T15:22:22.336Z,96511.47
2022-09-15T15:24:53.550Z,96517.69
2022-09-15T15:27:40.268Z,96523.72
2022-09-15T15:30:37.141Z,96534.16
2022-09-15T15:33:17.438Z,96541.41
2022-09-15T15:36:07.424Z,96536.38
2022-09-15T15:38:38.769Z,96534.63
2022-09-15T15:41:09.188Z,96543.91
2022-09-15T15:43:38.442Z,96533.44
2022-09-15T15:46:08.436Z,96530.88
2022-09-15T15:48:38.856Z,96528.91
2022-09-15T15:51:09.498Z,96521.09
2022-09-15T15:53:40.160Z,96529.31
2022-09-15T15:56:09.871Z,96533.88
2022-09-15T15:58:38.867Z,96521.59
2022-09-15T16:01:12.999Z,96513.34
2022-09-15T16:03:42.012Z,96502.41
2022-09-15T16:06:13.615Z,96496.31
2022-09-15T16:08:45.358Z,96506.09
2022-09-15T16:11:17.484Z,96516.75
2022-09-15T16:13:47.057Z,96519.78
2022-09-15T16:16:19.969Z,96527.56
2022-09-15T16:18:50.130Z,96525.28
2022-09-15T16:21:23.868Z,96520.41
2022-09-15T16:23:52.906Z,96523.38
2022-09-15T16:26:25.456Z,96518.19
2022-09-15T16:28:54.429Z,96508.91
2022-09-15T16:31:23.795Z,96513.78
2022-09-15T16:33:53.387Z,96521.09
2022-09-15T16:36:24.032Z,96512.13
2022-09-15T16:38:53.509Z,96525.03
2022-09-15T16:41:25.840Z,96517.22
2022-09-15T16:43:55.969Z,96523.63
2022-09-15T16:46:25.363Z,96526.31
2022-09-15T16:48:54.418Z,96528.56
2022-09-15T16:51:30.909Z,96521.69
2022-09-15T16:54:00.719Z,96519.97
2022-09-15T16:56:29.903Z,96520.63
2022-09-15T16:59:00.653Z,96513.19
2022-09-15T17:01:30.222Z,96503.00
2022-09-15T17:03:59.405Z,96502.41
2022-09-15T17:06:31.167Z,96495.59
2022-09-15T17:09:00.096Z,96493.56
2022-09-15T17:11:31.173Z,96497.00
2022-09-15T17:14:00.568Z,96489.47
2022-09-15T17:16:29.612Z,96476.09
2022-09-15T17:18:58.554Z,96471.78
2022-09-15T17:21:27.587Z,96474.53
2022-09-15T17:23:57.990Z,96465.47
2022-09-15T17:26:31.225Z,96450.81
2022-09-15T17:29:00.476Z,96450.53
2022-09-15T17:31:29.543Z,96437.25
2022-09-15T17:33:58.786Z,96436.13
2022-09-15T17:36:28.605Z,96448.13
2022-09-15T17:38:59.345Z,96452.75
2022-09-15T17:41:28.300Z,96458.81
2022-09-15T17:43:57.806Z,96470.78
2022-09-15T17:46:27.071Z,96485.94
2022-09-15T17:48:56.256Z,96479.50
2022-09-15T17:51:25.192Z,96490.81
2022-09-15T17:53:55.207Z,96496.09
2022-09-15T17:56:28.906Z,96496.09
2022-09-15T17:58:58.556Z,96506.78
2022-09-15T18:01:30.166Z,96502.88
2022-09-15T18:03:59.821Z,96506.72
2022-09-15T18:06:29.795Z,96502.66
2022-09-15T18:08:59.346Z,96501.69
2022-09-15T18:11:30.059Z,96499.84
2022-09-15T18:13:59.459Z,96492.94
2022-09-15T18:16:29.463Z,96483.06
2022-09-15T18:18:58.435Z,96480.59
2022-09-15T18:21:31.248Z,96502.00
2022-09-15T18:24:00.722Z,96500.97
2022-09-15T18:26:33.039Z,96487.81
2022-09-15T18:29:03.791Z,96493.06
2022-09-15T18:31:33.688Z,96500.41
2022-09-15T18:34:02.661Z,96500.91
2022-09-15T18:36:32.277Z,96496.31
2022-09-15T18:39:01.315Z,96501.25
2022-09-15T18:41:32.289Z,96492.94
2022-09-15T18:44:01.442Z,96486.31
2022-09-15T18:46:30.662Z,96491.97
2022-09-15T18:49:00.387Z,96479.00
2022-09-15T18:51:50.391Z,96496.19
2022-09-15T18:54:19.883Z,96492.56
2022-09-15T18:56:52.467Z,96510.19
2022-09-15T18:59:24.571Z,96498.94
2022-09-15T19:01:54.213Z,96492.50
2022-09-15T19:04:28.389Z,96500.47
2022-09-15T19:07:03.108Z,96510.25
2022-09-15T19:09:31.973Z,96522.16
2022-09-15T19:12:03.107Z,96517.38
2022-09-15T19:14:32.464Z,96523.50
2022-09-15T19:17:01.636Z,96542.06
2022-09-15T19:19:30.668Z,96543.91
2022-09-15T19:22:00.860Z,96555.09
2022-09-15T19:24:33.803Z,96559.59
2022-09-15T19:27:10.041Z,96562.53
2022-09-15T19:29:40.009Z,96561.34
2022-09-15T19:32:16.256Z,96569.50
2022-09-15T19:34:47.175Z,96562.88
2022-09-15T19:37:19.170Z,96563.25
2022-09-15T19:39:49.142Z,96554.03
2022-09-15T19:42:20.034Z,96555.25
2022-09-15T19:44:49.605Z,96554.09
2022-09-15T19:47:18.701Z,96561.03
2022-09-15T19:49:47.631Z,96562.09
2022-09-15T19:52:16.837Z,96563.44
2022-09-15T19:54:46.069Z,96566.72
2022-09-15T19:57:15.172Z,96572.81
2022-09-15T19:59:46.212Z,96582.84
2022-09-15T20:02:15.353Z,96583.84
2022-09-15T20:04:44.628Z,96585.56
2022-09-15T20:07:14.056Z,96591.06
2022-09-15T20:09:43.576Z,96599.16
2022-09-15T20:12:13.163Z,96604.44
2022-09-15T20:14:44.493Z,96602.78
2022-09-15T20:17:14.041Z,96597.91
2022-09-15T20:19:43.472Z,96592.97
2022-09-15T20:22:12.764Z,96590.09
2022-09-15T20:24:42.525Z,96606.28
2022-09-15T20:27:11.978Z,96609.25
2022-09-15T20:29:41.913Z,96606.91
2022-09-15T20:32:12.931Z,96614.25
2022-09-15T20:34:42.215Z,96614.84
2022-09-15T20:37:11.853Z,96619.44
2022-09-15T20:39:41.067Z,96613.34
2022-09-15T20:42:10.471Z,96607.91
2022-09-15T20:44:48.736Z,96607.69
2022-09-15T20:47:19.129Z,96602.84
2022-09-15T20:49:48.082Z,96610.22
2022-09-15T20:52:16.984Z,96612.00
2022-09-15T20:54:45.701Z,96610.28
2022-09-15T20:57:15.021Z,96620.88
2022-09-15T20:59:44.370Z,96626.53
2022-09-15T21:02:13.614Z,96630.19
2022-09-15T21:04:43.994Z,96617.00
2022-09-15T21:07:13.435Z,96627.00
2022-09-15T21:09:43.316Z,96627.44
2022-09-15T21:12:12.358Z,96632.50
2022-09-15T21:14:41.310Z,96629.72
2022-09-15T21:17:11.318Z,96633.81
2022-09-15T21:19:40.662Z,96631.72
2022-09-15T21:22:11.573Z,96625.22
2022-09-15T21:24:40.869Z,96637.72
2022-09-15T21:27:28.689Z,96641.50
2022-09-15T21:29:58.186Z,96631.97
2022-09-15T21:32:27.159Z,96633.59
2022-09-15T21:34:56.070Z,96646.06
2022-09-15T21:37:28.666Z,96649.81
2022-09-15T21:39:57.891Z,96652.41
2022-09-15T21:42:27.192Z,96663.94
2022-09-15T21:44:56.235Z,96658.44
2022-09-15T21:47:25.492Z,96668.06
2022-09-15T21:49:55.265Z,96673.88
2022-09-15T21:52:25.546Z,96674.72
2022-09-15T21:54:56.065Z,96679.31
2022-09-15T21:57:25.708Z,96682.19
2022-09-15T21:59:54.670Z,96684.38
2022-09-15T22:02:23.526Z,96685.06
2022-09-15T22:04:53.384Z,96693.91
2022-09-15T22:07:22.538Z,96705.53
2022-09-15T22:09:52.370Z,96706.72
2022-09-15T22:12:22.829Z,96705.09
2022-09-15T22:14:52.314Z,96711.53
2022-09-15T22:17:21.638Z,96718.13
2022-09-15T22:19:50.593Z,96715.97
2022-09-15T22:22:20.038Z,96728.56
2022-09-15T22:24:50.146Z,96727.13
2022-09-15T22:27:19.547Z,96718.41
2022-09-15T22:29:49.802Z,96724.28
2022-09-15T22:32:18.949Z,96720.81
2022-09-15T22:34:48.233Z,96725.94
2022-09-15T22:37:17.521Z,96722.16
2022-09-15T22:39:58.932Z,96728.00
2022-09-15T22:42:30.519Z,96731.44
2022-09-15T22:45:01.295Z,96730.47
2022-09-15T22:47:30.506Z,96724.47
2022-09-15T22:49:59.880Z,96730.91
2022-09-15T22:52:29.104Z,96732.16
2022-09-15T22:54:58.185Z,96731.41
2022-09-15T22:57:27.246Z,96731.41
2022-09-15T22:59:56.451Z,96739.94
2022-09-15T23:02:28.340Z,96742.16
2022-09-15T23:04:57.737Z,96733.38
2022-09-15T23:07:27.422Z,96728.59
2022-09-15T23:09:57.424Z,96734.63
2022-09-15T23:12:27.058Z,96718.94
2022-09-15T23:14:56.166Z,96724.59
2022-09-15T23:17:27.563Z,96721.69
2022-09-15T23:19:56.593Z,96727.97
2022-09-15T23:22:26.006Z,96720.47
2022-09-15T23:24:55.196Z,96729.31
2022-09-15T23:27:24.861Z,96742.41
2022-09-15T23:29:53.988Z,96740.44
2022-09-15T23:32:22.982Z,96740.34
2022-09-15T23:34:53.936Z,96736.50
2022-09-15T23:37:22.916Z,96738.22
2022-09-15T23:39:52.725Z,96742.91
2022-09-15T23:42:22.050Z,96740.13
2022-09-15T23:44:51.319Z,96740.97
2022-09-15T23:47:20.078Z,96750.91
2022-09-15T23:49:49.941Z,96747.69
2022-09-15T23:52:20.547Z,96754.69
2022-09-15T23:54:50.005Z,96758.66
2022-09-15T23:57:19.186Z,96766.78
2022-09-15T23:59:48.244Z,96770.97
